sensor_id;sensor_type;location;lat;lon;timestamp;P1;durP1;ratioP1;P2;durP2;ratioP2
62990;SDS011;49084;48.204;16.202;2023-09-12T00:01:08;13.63;;;12.05;;
62990;SDS011;49084;48.204;16.202;2023-09-12T00:03:34;15.00;;;12.02;;
62990;SDS011;49084;48.204;16.202;2023-09-12T00:06:01;14.05;;;12.00;;
62990;SDS011;49084;48.204;16.202;2023-09-12T00:08:27;14.18;;;12.18;;
62990;SDS011;49084;48.204;16.202;2023-09-12T00:13:25;14.23;;;12.13;;
62990;SDS011;49084;48.204;16.202;2023-09-12T00:15:50;13.40;;;11.80;;
62990;SDS011;49084;48.204;16.202;2023-09-12T00:18:16;14.35;;;12.05;;
62990;SDS011;49084;48.204;16.202;2023-09-12T00:20:41;16.95;;;11.95;;
62990;SDS011;49084;48.204;16.202;2023-09-12T00:23:07;15.88;;;11.40;;
62990;SDS011;49084;48.204;16.202;2023-09-12T00:25:33;13.88;;;11.65;;
62990;SDS011;49084;48.204;16.202;2023-09-12T00:27:58;16.13;;;11.40;;
62990;SDS011;49084;48.204;16.202;2023-09-12T00:30:24;15.20;;;12.40;;
62990;SDS011;49084;48.204;16.202;2023-09-12T00:32:50;16.13;;;12.43;;
62990;SDS011;49084;48.204;16.202;2023-09-12T00:35:15;12.70;;;11.25;;
62990;SDS011;49084;48.204;16.202;2023-09-12T00:37:41;16.33;;;12.48;;
62990;SDS011;49084;48.204;16.202;2023-09-12T00:40:06;14.68;;;12.68;;
62990;SDS011;49084;48.204;16.202;2023-09-12T00:42:32;14.27;;;12.50;;
62990;SDS011;49084;48.204;16.202;2023-09-12T00:44:58;15.77;;;11.90;;
62990;SDS011;49084;48.204;16.202;2023-09-12T00:47:24;16.95;;;13.52;;
62990;SDS011;49084;48.204;16.202;2023-09-12T00:49:52;14.50;;;12.25;;
62990;SDS011;49084;48.204;16.202;2023-09-12T00:52:18;13.65;;;12.15;;
62990;SDS011;49084;48.204;16.202;2023-09-12T00:54:46;15.52;;;12.35;;
62990;SDS011;49084;48.204;16.202;2023-09-12T00:57:12;21.23;;;12.68;;
62990;SDS011;49084;48.204;16.202;2023-09-12T00:59:38;13.90;;;12.30;;
62990;SDS011;49084;48.204;16.202;2023-09-12T01:02:04;15.30;;;11.63;;
62990;SDS011;49084;48.204;16.202;2023-09-12T01:04:31;15.02;;;12.88;;
62990;SDS011;49084;48.204;16.202;2023-09-12T01:06:57;14.32;;;12.82;;
62990;SDS011;49084;48.204;16.202;2023-09-12T01:09:23;15.85;;;12.27;;
62990;SDS011;49084;48.204;16.202;2023-09-12T01:11:49;14.93;;;12.38;;
62990;SDS011;49084;48.204;16.202;2023-09-12T01:14:15;14.98;;;12.98;;
62990;SDS011;49084;48.204;16.202;2023-09-12T01:16:41;16.17;;;12.27;;
62990;SDS011;49084;48.204;16.202;2023-09-12T01:19:06;17.55;;;12.82;;
62990;SDS011;49084;48.204;16.202;2023-09-12T01:30:02;13.60;;;12.18;;
62990;SDS011;49084;48.204;16.202;2023-09-12T01:32:29;17.67;;;12.57;;
62990;SDS011;49084;48.204;16.202;2023-09-12T01:34:57;13.88;;;12.48;;
62990;SDS011;49084;48.204;16.202;2023-09-12T01:37:22;14.40;;;12.88;;
62990;SDS011;49084;48.204;16.202;2023-09-12T01:39:48;14.35;;;12.85;;
62990;SDS011;49084;48.204;16.202;2023-09-12T01:42:15;15.35;;;13.05;;
62990;SDS011;49084;48.204;16.202;2023-09-12T01:47:10;17.13;;;12.45;;
62990;SDS011;49084;48.204;16.202;2023-09-12T01:49:38;14.02;;;12.43;;
62990;SDS011;49084;48.204;16.202;2023-09-12T01:52:06;17.73;;;13.30;;
62990;SDS011;49084;48.204;16.202;2023-09-12T01:54:32;14.93;;;13.27;;
62990;SDS011;49084;48.204;16.202;2023-09-12T01:56:59;14.18;;;12.52;;
62990;SDS011;49084;48.204;16.202;2023-09-12T01:59:26;13.90;;;12.48;;
62990;SDS011;49084;48.204;16.202;2023-09-12T02:01:53;14.00;;;12.60;;
62990;SDS011;49084;48.204;16.202;2023-09-12T02:04:18;17.42;;;13.32;;
62990;SDS011;49084;48.204;16.202;2023-09-12T02:06:44;14.93;;;12.73;;
62990;SDS011;49084;48.204;16.202;2023-09-12T02:09:10;14.38;;;11.90;;
62990;SDS011;49084;48.204;16.202;2023-09-12T02:11:35;13.77;;;12.38;;
62990;SDS011;49084;48.204;16.202;2023-09-12T02:14:01;15.05;;;12.60;;
62990;SDS011;49084;48.204;16.202;2023-09-12T02:16:27;16.88;;;12.95;;
62990;SDS011;49084;48.204;16.202;2023-09-12T02:18:54;18.08;;;12.82;;
62990;SDS011;49084;48.204;16.202;2023-09-12T02:21:20;15.18;;;13.02;;
62990;SDS011;49084;48.204;16.202;2023-09-12T02:23:45;14.32;;;12.32;;
62990;SDS011;49084;48.204;16.202;2023-09-12T02:26:11;16.23;;;12.77;;
62990;SDS011;49084;48.204;16.202;2023-09-12T02:28:36;13.48;;;12.07;;
62990;SDS011;49084;48.204;16.202;2023-09-12T02:31:02;14.48;;;12.68;;
62990;SDS011;49084;48.204;16.202;2023-09-12T02:33:28;14.68;;;13.05;;
62990;SDS011;49084;48.204;16.202;2023-09-12T02:35:53;15.98;;;13.07;;
62990;SDS011;49084;48.204;16.202;2023-09-12T02:38:19;15.40;;;12.90;;
62990;SDS011;49084;48.204;16.202;2023-09-12T02:40:44;18.55;;;13.80;;
62990;SDS011;49084;48.204;16.202;2023-09-12T02:43:10;15.90;;;12.93;;
62990;SDS011;49084;48.204;16.202;2023-09-12T02:45:36;14.43;;;12.73;;
62990;SDS011;49084;48.204;16.202;2023-09-12T02:48:01;16.00;;;12.75;;
62990;SDS011;49084;48.204;16.202;2023-09-12T02:50:27;17.45;;;13.65;;
62990;SDS011;49084;48.204;16.202;2023-09-12T02:52:53;15.00;;;13.50;;
62990;SDS011;49084;48.204;16.202;2023-09-12T02:55:18;16.33;;;14.73;;
62990;SDS011;49084;48.204;16.202;2023-09-12T02:57:45;16.60;;;13.90;;
62990;SDS011;49084;48.204;16.202;2023-09-12T03:00:12;15.20;;;13.15;;
62990;SDS011;49084;48.204;16.202;2023-09-12T03:02:38;15.98;;;13.52;;
62990;SDS011;49084;48.204;16.202;2023-09-12T03:05:04;15.10;;;13.30;;
62990;SDS011;49084;48.204;16.202;2023-09-12T03:07:30;16.45;;;13.00;;
62990;SDS011;49084;48.204;16.202;2023-09-12T03:09:55;15.27;;;13.60;;
62990;SDS011;49084;48.204;16.202;2023-09-12T03:12:21;14.85;;;13.13;;
62990;SDS011;49084;48.204;16.202;2023-09-12T03:14:47;15.93;;;13.23;;
62990;SDS011;49084;48.204;16.202;2023-09-12T03:17:12;14.85;;;13.35;;
62990;SDS011;49084;48.204;16.202;2023-09-12T03:19:38;16.83;;;13.32;;
62990;SDS011;49084;48.204;16.202;2023-09-12T03:22:04;14.95;;;13.18;;
62990;SDS011;49084;48.204;16.202;2023-09-12T03:24:29;17.15;;;13.88;;
62990;SDS011;49084;48.204;16.202;2023-09-12T03:26:56;15.20;;;13.57;;
62990;SDS011;49084;48.204;16.202;2023-09-12T03:29:21;17.85;;;13.80;;
62990;SDS011;49084;48.204;16.202;2023-09-12T03:31:48;19.80;;;13.95;;
62990;SDS011;49084;48.204;16.202;2023-09-12T03:34:13;16.80;;;13.70;;
62990;SDS011;49084;48.204;16.202;2023-09-12T03:36:39;17.50;;;14.00;;
62990;SDS011;49084;48.204;16.202;2023-09-12T03:39:05;16.52;;;14.25;;
62990;SDS011;49084;48.204;16.202;2023-09-12T03:41:33;18.65;;;14.75;;
62990;SDS011;49084;48.204;16.202;2023-09-12T03:43:59;16.10;;;14.40;;
62990;SDS011;49084;48.204;16.202;2023-09-12T03:46:25;18.38;;;14.57;;
62990;SDS011;49084;48.204;16.202;2023-09-12T03:48:51;17.08;;;14.05;;
62990;SDS011;49084;48.204;16.202;2023-09-12T03:51:16;18.55;;;14.20;;
62990;SDS011;49084;48.204;16.202;2023-09-12T03:53:42;18.95;;;15.45;;
62990;SDS011;49084;48.204;16.202;2023-09-12T03:56:08;15.60;;;14.02;;
62990;SDS011;49084;48.204;16.202;2023-09-12T03:58:37;16.83;;;14.95;;
62990;SDS011;49084;48.204;16.202;2023-09-12T04:01:03;15.75;;;14.15;;
62990;SDS011;49084;48.204;16.202;2023-09-12T04:03:28;17.88;;;14.45;;
62990;SDS011;49084;48.204;16.202;2023-09-12T04:05:54;18.90;;;14.82;;
62990;SDS011;49084;48.204;16.202;2023-09-12T04:08:20;18.60;;;14.45;;
62990;SDS011;49084;48.204;16.202;2023-09-12T04:10:45;21.70;;;15.15;;
62990;SDS011;49084;48.204;16.202;2023-09-12T04:13:11;17.23;;;14.90;;
62990;SDS011;49084;48.204;16.202;2023-09-12T04:15:36;19.33;;;14.80;;
62990;SDS011;49084;48.204;16.202;2023-09-12T04:18:02;21.80;;;15.45;;
62990;SDS011;49084;48.204;16.202;2023-09-12T04:20:28;21.80;;;16.23;;
62990;SDS011;49084;48.204;16.202;2023-09-12T04:22:54;18.73;;;14.95;;
62990;SDS011;49084;48.204;16.202;2023-09-12T04:25:19;19.55;;;15.25;;
62990;SDS011;49084;48.204;16.202;2023-09-12T04:27:45;20.17;;;15.20;;
62990;SDS011;49084;48.204;16.202;2023-09-12T04:30:11;17.13;;;14.82;;
62990;SDS011;49084;48.204;16.202;2023-09-12T04:32:37;17.23;;;14.00;;
62990;SDS011;49084;48.204;16.202;2023-09-12T04:35:02;22.67;;;14.35;;
62990;SDS011;49084;48.204;16.202;2023-09-12T04:37:28;16.67;;;14.30;;
62990;SDS011;49084;48.204;16.202;2023-09-12T04:39:54;17.70;;;15.20;;
62990;SDS011;49084;48.204;16.202;2023-09-12T04:42:20;21.13;;;15.23;;
62990;SDS011;49084;48.204;16.202;2023-09-12T04:44:45;18.70;;;15.60;;
62990;SDS011;49084;48.204;16.202;2023-09-12T04:47:11;18.50;;;15.02;;
62990;SDS011;49084;48.204;16.202;2023-09-12T04:49:37;17.00;;;15.13;;
62990;SDS011;49084;48.204;16.202;2023-09-12T04:52:04;19.77;;;16.00;;
62990;SDS011;49084;48.204;16.202;2023-09-12T04:54:30;18.17;;;15.32;;
62990;SDS011;49084;48.204;16.202;2023-09-12T04:56:55;19.95;;;15.23;;
62990;SDS011;49084;48.204;16.202;2023-09-12T04:59:21;18.35;;;15.00;;
62990;SDS011;49084;48.204;16.202;2023-09-12T05:01:46;18.70;;;14.35;;
62990;SDS011;49084;48.204;16.202;2023-09-12T05:04:12;24.80;;;14.68;;
62990;SDS011;49084;48.204;16.202;2023-09-12T05:06:38;19.08;;;13.93;;
62990;SDS011;49084;48.204;16.202;2023-09-12T05:09:04;21.20;;;14.35;;
62990;SDS011;49084;48.204;16.202;2023-09-12T05:11:36;16.38;;;14.35;;
62990;SDS011;49084;48.204;16.202;2023-09-12T05:14:01;17.45;;;14.75;;
62990;SDS011;49084;48.204;16.202;2023-09-12T05:16:30;21.33;;;14.93;;
62990;SDS011;49084;48.204;16.202;2023-09-12T05:18:55;19.90;;;13.80;;
62990;SDS011;49084;48.204;16.202;2023-09-12T05:21:21;17.55;;;14.10;;
62990;SDS011;49084;48.204;16.202;2023-09-12T05:23:47;17.65;;;14.15;;
62990;SDS011;49084;48.204;16.202;2023-09-12T05:26:12;15.52;;;13.70;;
62990;SDS011;49084;48.204;16.202;2023-09-12T05:28:38;18.80;;;13.10;;
62990;SDS011;49084;48.204;16.202;2023-09-12T05:31:04;17.70;;;12.68;;
62990;SDS011;49084;48.204;16.202;2023-09-12T05:33:29;15.05;;;12.23;;
62990;SDS011;49084;48.204;16.202;2023-09-12T05:35:55;19.50;;;12.50;;
62990;SDS011;49084;48.204;16.202;2023-09-12T05:38:21;15.20;;;11.45;;
62990;SDS011;49084;48.204;16.202;2023-09-12T05:40:47;14.52;;;11.10;;
62990;SDS011;49084;48.204;16.202;2023-09-12T05:43:15;13.38;;;10.70;;
62990;SDS011;49084;48.204;16.202;2023-09-12T05:45:41;17.38;;;10.95;;
62990;SDS011;49084;48.204;16.202;2023-09-12T05:48:07;17.13;;;10.27;;
62990;SDS011;49084;48.204;16.202;2023-09-12T05:50:34;13.10;;;10.05;;
62990;SDS011;49084;48.204;16.202;2023-09-12T05:53:01;10.52;;;9.43;;
62990;SDS011;49084;48.204;16.202;2023-09-12T05:55:27;12.02;;;8.93;;
62990;SDS011;49084;48.204;16.202;2023-09-12T05:57:53;12.02;;;9.25;;
62990;SDS011;49084;48.204;16.202;2023-09-12T06:00:18;10.95;;;8.88;;
62990;SDS011;49084;48.204;16.202;2023-09-12T06:02:45;14.52;;;9.15;;
62990;SDS011;49084;48.204;16.202;2023-09-12T06:05:11;20.90;;;9.88;;
62990;SDS011;49084;48.204;16.202;2023-09-12T06:07:36;10.85;;;8.90;;
62990;SDS011;49084;48.204;16.202;2023-09-12T06:10:04;10.80;;;8.35;;
62990;SDS011;49084;48.204;16.202;2023-09-12T06:12:30;12.00;;;8.52;;
62990;SDS011;49084;48.204;16.202;2023-09-12T06:14:57;15.05;;;9.07;;
62990;SDS011;49084;48.204;16.202;2023-09-12T06:17:24;13.20;;;8.82;;
62990;SDS011;49084;48.204;16.202;2023-09-12T06:19:50;10.45;;;7.80;;
62990;SDS011;49084;48.204;16.202;2023-09-12T06:22:16;11.70;;;8.20;;
62990;SDS011;49084;48.204;16.202;2023-09-12T06:24:42;8.90;;;7.40;;
62990;SDS011;49084;48.204;16.202;2023-09-12T06:27:09;11.63;;;8.00;;
62990;SDS011;49084;48.204;16.202;2023-09-12T06:29:37;9.32;;;8.38;;
62990;SDS011;49084;48.204;16.202;2023-09-12T06:32:03;13.93;;;7.75;;
62990;SDS011;49084;48.204;16.202;2023-09-12T06:34:28;10.52;;;7.70;;
62990;SDS011;49084;48.204;16.202;2023-09-12T06:36:54;10.38;;;7.70;;
62990;SDS011;49084;48.204;16.202;2023-09-12T06:39:20;10.98;;;7.60;;
62990;SDS011;49084;48.204;16.202;2023-09-12T06:41:45;8.75;;;7.20;;
62990;SDS011;49084;48.204;16.202;2023-09-12T06:44:11;8.27;;;7.32;;
62990;SDS011;49084;48.204;16.202;2023-09-12T06:46:36;9.95;;;7.60;;
62990;SDS011;49084;48.204;16.202;2023-09-12T06:49:02;11.00;;;7.43;;
62990;SDS011;49084;48.204;16.202;2023-09-12T06:51:28;13.10;;;7.97;;
62990;SDS011;49084;48.204;16.202;2023-09-12T06:53:54;15.05;;;7.75;;
62990;SDS011;49084;48.204;16.202;2023-09-12T06:56:20;8.45;;;7.43;;
62990;SDS011;49084;48.204;16.202;2023-09-12T06:58:46;9.65;;;7.47;;
62990;SDS011;49084;48.204;16.202;2023-09-12T07:01:13;13.57;;;7.10;;
62990;SDS011;49084;48.204;16.202;2023-09-12T07:03:38;11.02;;;8.35;;
62990;SDS011;49084;48.204;16.202;2023-09-12T07:06:04;10.73;;;7.57;;
62990;SDS011;49084;48.204;16.202;2023-09-12T07:08:30;11.73;;;7.72;;
62990;SDS011;49084;48.204;16.202;2023-09-12T07:10:56;14.43;;;8.20;;
62990;SDS011;49084;48.204;16.202;2023-09-12T07:13:23;8.40;;;7.43;;
62990;SDS011;49084;48.204;16.202;2023-09-12T07:15:49;11.57;;;7.20;;
62990;SDS011;49084;48.204;16.202;2023-09-12T07:18:15;10.68;;;7.95;;
62990;SDS011;49084;48.204;16.202;2023-09-12T07:20:41;8.68;;;7.60;;
62990;SDS011;49084;48.204;16.202;2023-09-12T07:23:07;8.88;;;7.25;;
62990;SDS011;49084;48.204;16.202;2023-09-12T07:25:39;13.20;;;7.65;;
62990;SDS011;49084;48.204;16.202;2023-09-12T07:28:08;12.07;;;7.82;;
62990;SDS011;49084;48.204;16.202;2023-09-12T07:30:34;7.95;;;6.72;;
62990;SDS011;49084;48.204;16.202;2023-09-12T07:33:00;13.93;;;7.65;;
62990;SDS011;49084;48.204;16.202;2023-09-12T07:35:25;11.02;;;7.47;;
62990;SDS011;49084;48.204;16.202;2023-09-12T07:37:51;8.75;;;7.85;;
62990;SDS011;49084;48.204;16.202;2023-09-12T07:40:17;10.45;;;7.97;;
62990;SDS011;49084;48.204;16.202;2023-09-12T07:42:42;12.07;;;7.40;;
62990;SDS011;49084;48.204;16.202;2023-09-12T07:45:08;8.27;;;7.47;;
62990;SDS011;49084;48.204;16.202;2023-09-12T07:47:34;7.60;;;6.78;;
62990;SDS011;49084;48.204;16.202;2023-09-12T07:50:00;9.90;;;7.15;;
62990;SDS011;49084;48.204;16.202;2023-09-12T07:52:26;10.68;;;6.97;;
62990;SDS011;49084;48.204;16.202;2023-09-12T07:54:52;12.57;;;6.90;;
62990;SDS011;49084;48.204;16.202;2023-09-12T07:57:22;7.40;;;6.80;;
62990;SDS011;49084;48.204;16.202;2023-09-12T07:59:48;8.30;;;6.50;;
62990;SDS011;49084;48.204;16.202;2023-09-12T08:02:14;7.25;;;6.53;;
62990;SDS011;49084;48.204;16.202;2023-09-12T08:04:39;6.93;;;6.22;;
62990;SDS011;49084;48.204;16.202;2023-09-12T08:07:05;7.78;;;6.60;;
62990;SDS011;49084;48.204;16.202;2023-09-12T08:09:50;7.80;;;6.43;;
62990;SDS011;49084;48.204;16.202;2023-09-12T08:12:17;9.07;;;6.45;;
62990;SDS011;49084;48.204;16.202;2023-09-12T08:14:43;8.70;;;6.28;;
62990;SDS011;49084;48.204;16.202;2023-09-12T08:17:10;6.82;;;6.22;;
62990;SDS011;49084;48.204;16.202;2023-09-12T08:19:36;7.90;;;6.43;;
62990;SDS011;49084;48.204;16.202;2023-09-12T08:22:02;11.20;;;6.35;;
62990;SDS011;49084;48.204;16.202;2023-09-12T08:24:28;8.38;;;6.30;;
62990;SDS011;49084;48.204;16.202;2023-09-12T08:26:53;9.27;;;6.05;;
62990;SDS011;49084;48.204;16.202;2023-09-12T08:29:19;7.57;;;6.07;;
62990;SDS011;49084;48.204;16.202;2023-09-12T08:31:45;6.43;;;5.80;;
62990;SDS011;49084;48.204;16.202;2023-09-12T08:34:12;7.53;;;6.07;;
62990;SDS011;49084;48.204;16.202;2023-09-12T08:36:38;8.25;;;6.18;;
62990;SDS011;49084;48.204;16.202;2023-09-12T08:39:04;6.43;;;5.40;;
62990;SDS011;49084;48.204;16.202;2023-09-12T08:41:33;5.97;;;5.55;;
62990;SDS011;49084;48.204;16.202;2023-09-12T08:43:59;9.15;;;5.95;;
62990;SDS011;49084;48.204;16.202;2023-09-12T08:46:25;5.97;;;5.57;;
62990;SDS011;49084;48.204;16.202;2023-09-12T08:48:51;5.88;;;5.38;;
62990;SDS011;49084;48.204;16.202;2023-09-12T08:51:20;6.03;;;5.45;;
62990;SDS011;49084;48.204;16.202;2023-09-12T08:53:48;5.88;;;5.38;;
62990;SDS011;49084;48.204;16.202;2023-09-12T08:56:15;5.85;;;5.35;;
62990;SDS011;49084;48.204;16.202;2023-09-12T08:58:41;7.43;;;6.57;;
62990;SDS011;49084;48.204;16.202;2023-09-12T09:01:08;6.82;;;5.88;;
62990;SDS011;49084;48.204;16.202;2023-09-12T09:03:38;6.60;;;6.00;;
62990;SDS011;49084;48.204;16.202;2023-09-12T09:06:06;6.65;;;5.75;;
62990;SDS011;49084;48.204;16.202;2023-09-12T09:08:33;6.68;;;5.57;;
62990;SDS011;49084;48.204;16.202;2023-09-12T09:11:00;8.88;;;5.50;;
62990;SDS011;49084;48.204;16.202;2023-09-12T09:13:31;6.22;;;5.65;;
62990;SDS011;49084;48.204;16.202;2023-09-12T09:16:16;6.05;;;5.53;;
62990;SDS011;49084;48.204;16.202;2023-09-12T09:19:00;5.88;;;5.45;;
62990;SDS011;49084;48.204;16.202;2023-09-12T09:21:28;5.85;;;5.35;;
62990;SDS011;49084;48.204;16.202;2023-09-12T09:23:56;6.22;;;5.35;;
62990;SDS011;49084;48.204;16.202;2023-09-12T09:26:26;5.75;;;5.20;;
62990;SDS011;49084;48.204;16.202;2023-09-12T09:29:16;6.37;;;5.40;;
62990;SDS011;49084;48.204;16.202;2023-09-12T09:31:44;7.10;;;5.60;;
62990;SDS011;49084;48.204;16.202;2023-09-12T09:34:14;7.75;;;5.85;;
62990;SDS011;49084;48.204;16.202;2023-09-12T09:36:42;6.35;;;5.78;;
62990;SDS011;49084;48.204;16.202;2023-09-12T09:39:15;6.53;;;5.47;;
62990;SDS011;49084;48.204;16.202;2023-09-12T09:41:42;8.70;;;5.57;;
62990;SDS011;49084;48.204;16.202;2023-09-12T09:44:16;6.28;;;5.70;;
62990;SDS011;49084;48.204;16.202;2023-09-12T09:46:45;6.97;;;6.20;;
62990;SDS011;49084;48.204;16.202;2023-09-12T09:49:14;6.68;;;6.07;;
62990;SDS011;49084;48.204;16.202;2023-09-12T09:51:41;6.10;;;5.53;;
62990;SDS011;49084;48.204;16.202;2023-09-12T09:54:07;13.52;;;6.47;;
62990;SDS011;49084;48.204;16.202;2023-09-12T09:56:34;8.55;;;5.60;;
62990;SDS011;49084;48.204;16.202;2023-09-12T09:59:11;8.20;;;6.05;;
62990;SDS011;49084;48.204;16.202;2023-09-12T10:01:40;6.43;;;5.88;;
62990;SDS011;49084;48.204;16.202;2023-09-12T10:04:06;8.50;;;6.03;;
62990;SDS011;49084;48.204;16.202;2023-09-12T10:06:33;9.90;;;5.50;;
62990;SDS011;49084;48.204;16.202;2023-09-12T10:09:01;7.00;;;6.30;;
62990;SDS011;49084;48.204;16.202;2023-09-12T10:11:32;8.70;;;6.32;;
62990;SDS011;49084;48.204;16.202;2023-09-12T10:14:00;7.78;;;6.05;;
62990;SDS011;49084;48.204;16.202;2023-09-12T10:16:35;12.80;;;6.90;;
62990;SDS011;49084;48.204;16.202;2023-09-12T10:21:50;7.00;;;5.95;;
62990;SDS011;49084;48.204;16.202;2023-09-12T10:24:31;9.15;;;6.15;;
62990;SDS011;49084;48.204;16.202;2023-09-12T10:26:59;10.95;;;6.82;;
62990;SDS011;49084;48.204;16.202;2023-09-12T10:29:27;10.02;;;7.10;;
62990;SDS011;49084;48.204;16.202;2023-09-12T10:31:53;12.00;;;7.93;;
62990;SDS011;49084;48.204;16.202;2023-09-12T10:34:19;11.38;;;7.82;;
62990;SDS011;49084;48.204;16.202;2023-09-12T10:36:45;9.52;;;6.82;;
62990;SDS011;49084;48.204;16.202;2023-09-12T10:39:13;11.50;;;7.37;;
62990;SDS011;49084;48.204;16.202;2023-09-12T10:41:40;9.48;;;6.70;;
62990;SDS011;49084;48.204;16.202;2023-09-12T10:44:09;12.60;;;7.20;;
62990;SDS011;49084;48.204;16.202;2023-09-12T10:46:39;9.35;;;6.80;;
62990;SDS011;49084;48.204;16.202;2023-09-12T10:49:06;12.48;;;7.28;;
62990;SDS011;49084;48.204;16.202;2023-09-12T10:51:34;11.60;;;7.03;;
62990;SDS011;49084;48.204;16.202;2023-09-12T10:54:03;14.93;;;7.80;;
62990;SDS011;49084;48.204;16.202;2023-09-12T10:56:29;10.43;;;7.97;;
62990;SDS011;49084;48.204;16.202;2023-09-12T11:01:34;12.07;;;6.88;;
62990;SDS011;49084;48.204;16.202;2023-09-12T11:06:48;9.60;;;6.65;;
62990;SDS011;49084;48.204;16.202;2023-09-12T11:11:40;11.05;;;7.35;;
62990;SDS011;49084;48.204;16.202;2023-09-12T11:14:11;11.55;;;7.18;;
62990;SDS011;49084;48.204;16.202;2023-09-12T11:16:37;9.68;;;7.32;;
62990;SDS011;49084;48.204;16.202;2023-09-12T11:19:13;10.30;;;7.65;;
62990;SDS011;49084;48.204;16.202;2023-09-12T11:21:41;12.65;;;7.00;;
62990;SDS011;49084;48.204;16.202;2023-09-12T11:24:25;10.82;;;7.65;;
62990;SDS011;49084;48.204;16.202;2023-09-12T11:26:52;11.38;;;7.70;;
62990;SDS011;49084;48.204;16.202;2023-09-12T11:31:51;10.75;;;7.63;;
62990;SDS011;49084;48.204;16.202;2023-09-12T11:34:19;11.43;;;7.28;;
62990;SDS011;49084;48.204;16.202;2023-09-12T11:36:45;28.80;;;8.63;;
62990;SDS011;49084;48.204;16.202;2023-09-12T11:42:10;14.18;;;8.07;;
62990;SDS011;49084;48.204;16.202;2023-09-12T11:44:38;13.63;;;7.60;;
62990;SDS011;49084;48.204;16.202;2023-09-12T11:47:04;15.60;;;8.60;;
62990;SDS011;49084;48.204;16.202;2023-09-12T11:49:39;14.70;;;7.70;;
62990;SDS011;49084;48.204;16.202;2023-09-12T11:52:09;11.00;;;7.20;;
62990;SDS011;49084;48.204;16.202;2023-09-12T11:54:41;12.15;;;7.90;;
62990;SDS011;49084;48.204;16.202;2023-09-12T11:57:08;14.38;;;7.18;;
62990;SDS011;49084;48.204;16.202;2023-09-12T11:59:38;13.45;;;7.03;;
62990;SDS011;49084;48.204;16.202;2023-09-12T12:02:08;9.07;;;6.78;;
62990;SDS011;49084;48.204;16.202;2023-09-12T12:04:34;14.38;;;6.40;;
62990;SDS011;49084;48.204;16.202;2023-09-12T12:07:00;9.48;;;6.57;;
62990;SDS011;49084;48.204;16.202;2023-09-12T12:09:27;6.97;;;6.07;;
62990;SDS011;49084;48.204;16.202;2023-09-12T12:11:53;8.82;;;6.38;;
62990;SDS011;49084;48.204;16.202;2023-09-12T12:14:19;4.13;;;3.60;;
62990;SDS011;49084;48.204;16.202;2023-09-12T12:16:45;10.25;;;6.35;;
62990;SDS011;49084;48.204;16.202;2023-09-12T12:19:14;7.07;;;6.03;;
62990;SDS011;49084;48.204;16.202;2023-09-12T12:21:41;13.60;;;5.93;;
62990;SDS011;49084;48.204;16.202;2023-09-12T12:24:09;11.02;;;6.68;;
62990;SDS011;49084;48.204;16.202;2023-09-12T12:26:37;10.32;;;6.90;;
62990;SDS011;49084;48.204;16.202;2023-09-12T12:29:05;6.43;;;5.68;;
62990;SDS011;49084;48.204;16.202;2023-09-12T12:31:30;7.25;;;5.82;;
62990;SDS011;49084;48.204;16.202;2023-09-12T12:33:56;9.00;;;6.18;;
62990;SDS011;49084;48.204;16.202;2023-09-12T12:36:22;9.93;;;6.32;;
62990;SDS011;49084;48.204;16.202;2023-09-12T12:38:49;12.68;;;6.72;;
62990;SDS011;49084;48.204;16.202;2023-09-12T12:41:16;9.23;;;6.53;;
62990;SDS011;49084;48.204;16.202;2023-09-12T12:43:48;8.60;;;5.80;;
62990;SDS011;49084;48.204;16.202;2023-09-12T12:46:18;10.50;;;6.55;;
62990;SDS011;49084;48.204;16.202;2023-09-12T12:48:47;10.02;;;5.72;;
62990;SDS011;49084;48.204;16.202;2023-09-12T12:51:17;7.05;;;5.75;;
62990;SDS011;49084;48.204;16.202;2023-09-12T12:53:54;10.73;;;6.80;;
62990;SDS011;49084;48.204;16.202;2023-09-12T12:56:22;11.73;;;6.57;;
62990;SDS011;49084;48.204;16.202;2023-09-12T12:58:52;8.20;;;5.80;;
62990;SDS011;49084;48.204;16.202;2023-09-12T13:01:22;8.25;;;5.75;;
62990;SDS011;49084;48.204;16.202;2023-09-12T13:03:48;7.30;;;5.55;;
62990;SDS011;49084;48.204;16.202;2023-09-12T13:06:18;8.88;;;6.50;;
62990;SDS011;49084;48.204;16.202;2023-09-12T13:08:44;12.13;;;5.95;;
62990;SDS011;49084;48.204;16.202;2023-09-12T13:11:12;8.77;;;5.78;;
62990;SDS011;49084;48.204;16.202;2023-09-12T13:13:39;6.18;;;5.57;;
62990;SDS011;49084;48.204;16.202;2023-09-12T13:16:06;14.55;;;5.70;;
62990;SDS011;49084;48.204;16.202;2023-09-12T13:18:37;9.73;;;6.10;;
62990;SDS011;49084;48.204;16.202;2023-09-12T13:21:03;11.98;;;5.80;;
62990;SDS011;49084;48.204;16.202;2023-09-12T13:23:30;10.55;;;5.85;;
62990;SDS011;49084;48.204;16.202;2023-09-12T13:25:56;11.68;;;5.50;;
62990;SDS011;49084;48.204;16.202;2023-09-12T13:28:22;15.18;;;5.85;;
62990;SDS011;49084;48.204;16.202;2023-09-12T13:30:52;6.88;;;5.30;;
62990;SDS011;49084;48.204;16.202;2023-09-12T13:33:18;8.35;;;5.80;;
62990;SDS011;49084;48.204;16.202;2023-09-12T13:35:43;11.50;;;5.97;;
62990;SDS011;49084;48.204;16.202;2023-09-12T13:38:09;13.00;;;6.50;;
62990;SDS011;49084;48.204;16.202;2023-09-12T13:40:38;12.07;;;6.53;;
62990;SDS011;49084;48.204;16.202;2023-09-12T13:43:05;10.95;;;6.50;;
62990;SDS011;49084;48.204;16.202;2023-09-12T13:45:31;11.52;;;6.15;;
62990;SDS011;49084;48.204;16.202;2023-09-12T13:47:58;7.20;;;5.68;;
62990;SDS011;49084;48.204;16.202;2023-09-12T13:50:24;7.05;;;6.35;;
62990;SDS011;49084;48.204;16.202;2023-09-12T13:52:54;11.93;;;6.07;;
62990;SDS011;49084;48.204;16.202;2023-09-12T13:55:24;9.23;;;5.80;;
62990;SDS011;49084;48.204;16.202;2023-09-12T13:57:50;6.68;;;6.00;;
62990;SDS011;49084;48.204;16.202;2023-09-12T14:00:16;8.70;;;5.97;;
62990;SDS011;49084;48.204;16.202;2023-09-12T14:02:42;6.78;;;6.18;;
62990;SDS011;49084;48.204;16.202;2023-09-12T14:05:09;10.68;;;5.90;;
62990;SDS011;49084;48.204;16.202;2023-09-12T14:07:36;9.40;;;6.50;;
62990;SDS011;49084;48.204;16.202;2023-09-12T14:10:04;12.53;;;6.77;;
62990;SDS011;49084;48.204;16.202;2023-09-12T14:12:33;6.50;;;5.90;;
62990;SDS011;49084;48.204;16.202;2023-09-12T14:15:00;9.38;;;6.63;;
62990;SDS011;49084;48.204;16.202;2023-09-12T14:17:26;17.65;;;6.90;;
62990;SDS011;49084;48.204;16.202;2023-09-12T14:19:54;13.17;;;6.57;;
62990;SDS011;49084;48.204;16.202;2023-09-12T14:22:21;10.65;;;5.88;;
62990;SDS011;49084;48.204;16.202;2023-09-12T14:24:47;16.05;;;6.63;;
62990;SDS011;49084;48.204;16.202;2023-09-12T14:27:14;8.35;;;5.32;;
62990;SDS011;49084;48.204;16.202;2023-09-12T14:29:40;7.75;;;5.90;;
62990;SDS011;49084;48.204;16.202;2023-09-12T14:32:11;6.00;;;5.50;;
62990;SDS011;49084;48.204;16.202;2023-09-12T14:34:37;8.10;;;5.75;;
62990;SDS011;49084;48.204;16.202;2023-09-12T14:37:04;7.25;;;5.63;;
62990;SDS011;49084;48.204;16.202;2023-09-12T14:39:30;7.63;;;5.90;;
62990;SDS011;49084;48.204;16.202;2023-09-12T14:41:57;9.07;;;5.47;;
62990;SDS011;49084;48.204;16.202;2023-09-12T14:44:24;6.68;;;5.63;;
62990;SDS011;49084;48.204;16.202;2023-09-12T14:46:50;7.15;;;5.30;;
62990;SDS011;49084;48.204;16.202;2023-09-12T14:49:17;7.10;;;5.55;;